sensor_id;sensor_type;location;lat;lon;timestamp;temperature;humidity
32698;DHT22;19087;51.062;3.754;2023-11-19T00:02:20;15.60;99.90
32698;DHT22;19087;51.062;3.754;2023-11-19T00:04:46;15.60;99.90
32698;DHT22;19087;51.062;3.754;2023-11-19T00:07:11;15.50;99.90
32698;DHT22;19087;51.062;3.754;2023-11-19T00:09:39;15.40;99.90
32698;DHT22;19087;51.062;3.754;2023-11-19T00:12:06;15.40;99.90
32698;DHT22;19087;51.062;3.754;2023-11-19T00:14:31;15.40;99.90
32698;DHT22;19087;51.062;3.754;2023-11-19T00:16:59;15.40;99.90
32698;DHT22;19087;51.062;3.754;2023-11-19T00:19:24;15.20;99.90
32698;DHT22;19087;51.062;3.754;2023-11-19T00:21:52;15.20;99.90
32698;DHT22;19087;51.062;3.754;2023-11-19T00:24:17;15.20;99.90
32698;DHT22;19087;51.062;3.754;2023-11-19T00:26:43;15.30;99.90
32698;DHT22;19087;51.062;3.754;2023-11-19T00:29:09;15.20;99.90
32698;DHT22;19087;51.062;3.754;2023-11-19T00:31:35;15.20;99.90
32698;DHT22;19087;51.062;3.754;2023-11-19T00:34:01;15.20;99.90
32698;DHT22;19087;51.062;3.754;2023-11-19T00:36:31;15.00;99.90
32698;DHT22;19087;51.062;3.754;2023-11-19T00:38:57;15.00;99.90
32698;DHT22;19087;51.062;3.754;2023-11-19T00:41:23;15.10;99.90
32698;DHT22;19087;51.062;3.754;2023-11-19T00:43:49;14.90;99.90
32698;DHT22;19087;51.062;3.754;2023-11-19T00:46:15;14.80;99.90
32698;DHT22;19087;51.062;3.754;2023-11-19T00:48:41;14.60;99.90
32698;DHT22;19087;51.062;3.754;2023-11-19T00:51:08;14.70;99.90
32698;DHT22;19087;51.062;3.754;2023-11-19T00:53:33;14.80;99.90
32698;DHT22;19087;51.062;3.754;2023-11-19T00:56:00;14.90;99.90
32698;DHT22;19087;51.062;3.754;2023-11-19T00:58:27;14.90;99.90
32698;DHT22;19087;51.062;3.754;2023-11-19T01:00:52;15.00;99.90
32698;DHT22;19087;51.062;3.754;2023-11-19T01:03:19;15.00;99.90
32698;DHT22;19087;51.062;3.754;2023-11-19T01:05:45;15.00;99.90
32698;DHT22;19087;51.062;3.754;2023-11-19T01:08:12;15.10;99.90
32698;DHT22;19087;51.062;3.754;2023-11-19T01:10:38;15.10;99.90
32698;DHT22;19087;51.062;3.754;2023-11-19T01:13:04;15.00;99.90
32698;DHT22;19087;51.062;3.754;2023-11-19T01:15:32;15.00;99.90
32698;DHT22;19087;51.062;3.754;2023-11-19T01:17:58;14.90;99.90
32698;DHT22;19087;51.062;3.754;2023-11-19T01:20:23;14.90;99.90
32698;DHT22;19087;51.062;3.754;2023-11-19T01:22:50;14.70;99.90
32698;DHT22;19087;51.062;3.754;2023-11-19T01:25:19;14.70;99.90
32698;DHT22;19087;51.062;3.754;2023-11-19T01:27:44;14.60;99.90
32698;DHT22;19087;51.062;3.754;2023-11-19T01:30:10;14.70;99.90
32698;DHT22;19087;51.062;3.754;2023-11-19T01:32:39;14.80;99.90
32698;DHT22;19087;51.062;3.754;2023-11-19T01:35:05;14.70;99.90
32698;DHT22;19087;51.062;3.754;2023-11-19T01:37:31;14.70;99.90
32698;DHT22;19087;51.062;3.754;2023-11-19T01:39:57;14.80;99.90
32698;DHT22;19087;51.062;3.754;2023-11-19T01:42:23;14.80;99.90
32698;DHT22;19087;51.062;3.754;2023-11-19T01:44:58;14.90;99.90
32698;DHT22;19087;51.062;3.754;2023-11-19T01:47:25;14.90;99.90
32698;DHT22;19087;51.062;3.754;2023-11-19T01:49:51;14.90;99.90
32698;DHT22;19087;51.062;3.754;2023-11-19T01:52:18;14.80;99.90
32698;DHT22;19087;51.062;3.754;2023-11-19T01:54:44;14.80;99.90
32698;DHT22;19087;51.062;3.754;2023-11-19T01:57:10;14.80;99.90
32698;DHT22;19087;51.062;3.754;2023-11-19T01:59:37;14.60;99.90
32698;DHT22;19087;51.062;3.754;2023-11-19T02:02:04;14.60;99.90
32698;DHT22;19087;51.062;3.754;2023-11-19T02:04:32;14.60;99.90
32698;DHT22;19087;51.062;3.754;2023-11-19T02:06:58;14.60;99.90
32698;DHT22;19087;51.062;3.754;2023-11-19T02:09:24;14.60;99.90
32698;DHT22;19087;51.062;3.754;2023-11-19T02:11:50;14.50;99.90
32698;DHT22;19087;51.062;3.754;2023-11-19T02:14:17;14.50;99.90
32698;DHT22;19087;51.062;3.754;2023-11-19T02:16:43;14.50;99.90
32698;DHT22;19087;51.062;3.754;2023-11-19T02:19:10;14.40;99.90
32698;DHT22;19087;51.062;3.754;2023-11-19T02:21:38;14.40;99.90
32698;DHT22;19087;51.062;3.754;2023-11-19T02:24:06;14.40;99.90
32698;DHT22;19087;51.062;3.754;2023-11-19T02:26:42;14.30;99.90
32698;DHT22;19087;51.062;3.754;2023-11-19T02:29:11;14.20;99.90
32698;DHT22;19087;51.062;3.754;2023-11-19T02:31:37;14.20;99.90
32698;DHT22;19087;51.062;3.754;2023-11-19T02:34:02;14.20;99.90
32698;DHT22;19087;51.062;3.754;2023-11-19T02:36:28;14.30;99.90
32698;DHT22;19087;51.062;3.754;2023-11-19T02:38:54;14.40;99.90
32698;DHT22;19087;51.062;3.754;2023-11-19T02:41:20;14.40;99.90
32698;DHT22;19087;51.062;3.754;2023-11-19T02:43:46;14.40;99.90
32698;DHT22;19087;51.062;3.754;2023-11-19T02:46:14;14.40;99.90
32698;DHT22;19087;51.062;3.754;2023-11-19T02:48:39;14.40;99.90
32698;DHT22;19087;51.062;3.754;2023-11-19T02:51:05;14.30;99.90
32698;DHT22;19087;51.062;3.754;2023-11-19T02:53:34;14.20;99.90
32698;DHT22;19087;51.062;3.754;2023-11-19T02:56:00;14.20;99.90
32698;DHT22;19087;51.062;3.754;2023-11-19T02:58:38;14.20;99.90
32698;DHT22;19087;51.062;3.754;2023-11-19T03:01:04;14.20;99.90
32698;DHT22;19087;51.062;3.754;2023-11-19T03:03:38;14.10;99.90
32698;DHT22;19087;51.062;3.754;2023-11-19T03:06:06;14.10;99.90
32698;DHT22;19087;51.062;3.754;2023-11-19T03:08:35;14.10;99.90
32698;DHT22;19087;51.062;3.754;2023-11-19T03:11:01;14.10;99.90
32698;DHT22;19087;51.062;3.754;2023-11-19T03:13:28;14.10;99.90
32698;DHT22;19087;51.062;3.754;2023-11-19T03:15:53;14.10;99.90
32698;DHT22;19087;51.062;3.754;2023-11-19T03:18:20;14.20;99.90
32698;DHT22;19087;51.062;3.754;2023-11-19T03:20:47;14.20;99.90
32698;DHT22;19087;51.062;3.754;2023-11-19T03:23:13;14.30;99.90
32698;DHT22;19087;51.062;3.754;2023-11-19T03:25:39;14.20;99.90
32698;DHT22;19087;51.062;3.754;2023-11-19T03:28:05;14.20;99.90
32698;DHT22;19087;51.062;3.754;2023-11-19T03:30:32;14.00;99.90
32698;DHT22;19087;51.062;3.754;2023-11-19T03:32:58;14.00;99.90
32698;DHT22;19087;51.062;3.754;2023-11-19T03:35:25;13.80;99.90
32698;DHT22;19087;51.062;3.754;2023-11-19T03:37:51;13.80;99.90
32698;DHT22;19087;51.062;3.754;2023-11-19T03:40:18;14.00;99.90
32698;DHT22;19087;51.062;3.754;2023-11-19T03:42:46;14.00;99.90
32698;DHT22;19087;51.062;3.754;2023-11-19T03:45:13;13.90;99.90
32698;DHT22;19087;51.062;3.754;2023-11-19T03:47:39;13.80;99.90
32698;DHT22;19087;51.062;3.754;2023-11-19T03:50:05;13.90;99.90
32698;DHT22;19087;51.062;3.754;2023-11-19T03:52:32;13.80;99.90
32698;DHT22;19087;51.062;3.754;2023-11-19T03:54:57;13.80;99.90
32698;DHT22;19087;51.062;3.754;2023-11-19T03:57:23;13.80;99.90
32698;DHT22;19087;51.062;3.754;2023-11-19T03:59:49;13.80;99.90
32698;DHT22;19087;51.062;3.754;2023-11-19T04:02:16;13.80;99.90
32698;DHT22;19087;51.062;3.754;2023-11-19T04:04:41;13.70;99.90
32698;DHT22;19087;51.062;3.754;2023-11-19T04:07:09;13.80;99.90
32698;DHT22;19087;51.062;3.754;2023-11-19T04:09:35;13.70;99.90
32698;DHT22;19087;51.062;3.754;2023-11-19T04:12:04;13.70;99.90
32698;DHT22;19087;51.062;3.754;2023-11-19T04:14:31;13.60;99.90
32698;DHT22;19087;51.062;3.754;2023-11-19T04:16:57;13.70;99.90
32698;DHT22;19087;51.062;3.754;2023-11-19T04:19:23;13.70;99.90
32698;DHT22;19087;51.062;3.754;2023-11-19T04:21:48;13.70;99.90
32698;DHT22;19087;51.062;3.754;2023-11-19T04:24:14;13.70;99.90
32698;DHT22;19087;51.062;3.754;2023-11-19T04:26:44;13.60;99.90
32698;DHT22;19087;51.062;3.754;2023-11-19T04:29:15;13.60;99.90
32698;DHT22;19087;51.062;3.754;2023-11-19T04:31:45;13.60;99.90
32698;DHT22;19087;51.062;3.754;2023-11-19T04:34:11;13.70;99.90
32698;DHT22;19087;51.062;3.754;2023-11-19T04:36:37;13.60;99.90
32698;DHT22;19087;51.062;3.754;2023-11-19T04:39:03;13.60;99.90
32698;DHT22;19087;51.062;3.754;2023-11-19T04:41:51;13.50;99.90
32698;DHT22;19087;51.062;3.754;2023-11-19T04:44:20;13.50;99.90
32698;DHT22;19087;51.062;3.754;2023-11-19T04:46:47;13.50;99.90
32698;DHT22;19087;51.062;3.754;2023-11-19T04:49:13;13.40;99.90
32698;DHT22;19087;51.062;3.754;2023-11-19T04:51:40;13.40;99.90
32698;DHT22;19087;51.062;3.754;2023-11-19T04:54:09;13.40;99.90
32698;DHT22;19087;51.062;3.754;2023-11-19T04:56:36;13.40;99.90
32698;DHT22;19087;51.062;3.754;2023-11-19T04:59:03;13.50;99.90
32698;DHT22;19087;51.062;3.754;2023-11-19T05:01:29;13.40;99.90
32698;DHT22;19087;51.062;3.754;2023-11-19T05:03:55;13.40;99.90
32698;DHT22;19087;51.062;3.754;2023-11-19T05:06:22;13.30;99.90
32698;DHT22;19087;51.062;3.754;2023-11-19T05:08:48;13.30;99.90
32698;DHT22;19087;51.062;3.754;2023-11-19T05:11:14;13.40;99.90
32698;DHT22;19087;51.062;3.754;2023-11-19T05:13:43;13.30;99.90
32698;DHT22;19087;51.062;3.754;2023-11-19T05:16:11;13.20;99.90
32698;DHT22;19087;51.062;3.754;2023-11-19T05:18:39;13.20;99.90
32698;DHT22;19087;51.062;3.754;2023-11-19T05:21:06;13.20;99.90
32698;DHT22;19087;51.062;3.754;2023-11-19T05:23:33;13.40;99.90
32698;DHT22;19087;51.062;3.754;2023-11-19T05:26:01;13.30;99.90
32698;DHT22;19087;51.062;3.754;2023-11-19T05:28:27;13.30;99.90
32698;DHT22;19087;51.062;3.754;2023-11-19T05:30:52;13.30;99.90
32698;DHT22;19087;51.062;3.754;2023-11-19T05:33:18;13.30;99.90
32698;DHT22;19087;51.062;3.754;2023-11-19T05:35:44;13.10;99.90
32698;DHT22;19087;51.062;3.754;2023-11-19T05:38:09;13.00;99.90
32698;DHT22;19087;51.062;3.754;2023-11-19T05:40:35;13.20;99.90
32698;DHT22;19087;51.062;3.754;2023-11-19T05:43:01;13.20;99.90
32698;DHT22;19087;51.062;3.754;2023-11-19T05:45:27;13.10;99.90
32698;DHT22;19087;51.062;3.754;2023-11-19T05:47:55;13.10;99.90
32698;DHT22;19087;51.062;3.754;2023-11-19T05:50:20;13.20;99.90
32698;DHT22;19087;51.062;3.754;2023-11-19T05:52:46;13.20;99.90
32698;DHT22;19087;51.062;3.754;2023-11-19T05:55:12;13.30;99.90
32698;DHT22;19087;51.062;3.754;2023-11-19T05:57:38;13.20;99.90
32698;DHT22;19087;51.062;3.754;2023-11-19T06:00:07;13.30;99.90
32698;DHT22;19087;51.062;3.754;2023-11-19T06:02:36;13.20;99.90
32698;DHT22;19087;51.062;3.754;2023-11-19T06:05:05;13.30;99.90
32698;DHT22;19087;51.062;3.754;2023-11-19T06:07:32;13.30;99.90
32698;DHT22;19087;51.062;3.754;2023-11-19T06:09:57;13.30;99.90
32698;DHT22;19087;51.062;3.754;2023-11-19T06:12:23;13.20;99.90
32698;DHT22;19087;51.062;3.754;2023-11-19T06:14:49;13.20;99.90
32698;DHT22;19087;51.062;3.754;2023-11-19T06:17:14;13.20;99.90
32698;DHT22;19087;51.062;3.754;2023-11-19T06:19:40;13.20;99.90
32698;DHT22;19087;51.062;3.754;2023-11-19T06:22:05;13.20;99.90
32698;DHT22;19087;51.062;3.754;2023-11-19T06:24:32;13.10;99.90
32698;DHT22;19087;51.062;3.754;2023-11-19T06:26:57;13.10;99.90
32698;DHT22;19087;51.062;3.754;2023-11-19T06:29:23;13.20;99.90
32698;DHT22;19087;51.062;3.754;2023-11-19T06:31:49;13.10;99.90
32698;DHT22;19087;51.062;3.754;2023-11-19T06:34:15;13.10;99.90
32698;DHT22;19087;51.062;3.754;2023-11-19T06:36:41;13.00;99.90
32698;DHT22;19087;51.062;3.754;2023-11-19T06:39:09;13.00;99.90
32698;DHT22;19087;51.062;3.754;2023-11-19T06:41:34;13.10;99.90
32698;DHT22;19087;51.062;3.754;2023-11-19T06:44:02;13.20;99.90
32698;DHT22;19087;51.062;3.754;2023-11-19T06:46:28;13.20;99.90
32698;DHT22;19087;51.062;3.754;2023-11-19T06:48:53;13.10;99.90
32698;DHT22;19087;51.062;3.754;2023-11-19T06:51:20;13.10;99.90
32698;DHT22;19087;51.062;3.754;2023-11-19T06:53:45;13.10;99.90
32698;DHT22;19087;51.062;3.754;2023-11-19T06:56:21;13.00;99.90
32698;DHT22;19087;51.062;3.754;2023-11-19T06:58:47;13.10;99.90
32698;DHT22;19087;51.062;3.754;2023-11-19T07:01:16;13.30;99.90
32698;DHT22;19087;51.062;3.754;2023-11-19T07:03:42;13.20;99.90
32698;DHT22;19087;51.062;3.754;2023-11-19T07:06:08;13.10;99.90
32698;DHT22;19087;51.062;3.754;2023-11-19T07:08:34;13.10;99.90
32698;DHT22;19087;51.062;3.754;2023-11-19T07:11:02;13.00;99.90
32698;DHT22;19087;51.062;3.754;2023-11-19T07:13:30;13.10;99.90
32698;DHT22;19087;51.062;3.754;2023-11-19T07:15:57;13.10;99.90
32698;DHT22;19087;51.062;3.754;2023-11-19T07:18:24;13.10;99.90
32698;DHT22;19087;51.062;3.754;2023-11-19T07:20:50;12.90;99.90
32698;DHT22;19087;51.062;3.754;2023-11-19T07:23:17;12.90;99.90
32698;DHT22;19087;51.062;3.754;2023-11-19T07:25:43;13.00;99.90
32698;DHT22;19087;51.062;3.754;2023-11-19T07:28:12;13.00;99.90
32698;DHT22;19087;51.062;3.754;2023-11-19T07:30:38;13.00;99.90
32698;DHT22;19087;51.062;3.754;2023-11-19T07:33:04;13.00;99.90
32698;DHT22;19087;51.062;3.754;2023-11-19T07:35:31;12.90;99.90
32698;DHT22;19087;51.062;3.754;2023-11-19T07:37:57;12.90;99.90
32698;DHT22;19087;51.062;3.754;2023-11-19T07:40:23;13.00;99.90
32698;DHT22;19087;51.062;3.754;2023-11-19T07:42:49;13.00;99.90
32698;DHT22;19087;51.062;3.754;2023-11-19T07:45:15;13.00;99.90
32698;DHT22;19087;51.062;3.754;2023-11-19T07:47:41;13.00;99.90
32698;DHT22;19087;51.062;3.754;2023-11-19T07:50:08;13.00;99.90
32698;DHT22;19087;51.062;3.754;2023-11-19T07:52:34;13.00;99.90
32698;DHT22;19087;51.062;3.754;2023-11-19T07:54:59;13.10;99.90
32698;DHT22;19087;51.062;3.754;2023-11-19T07:57:26;13.20;99.90
32698;DHT22;19087;51.062;3.754;2023-11-19T07:59:55;13.10;99.90
32698;DHT22;19087;51.062;3.754;2023-11-19T08:02:21;13.20;99.90
32698;DHT22;19087;51.062;3.754;2023-11-19T08:04:47;13.20;99.90
32698;DHT22;19087;51.062;3.754;2023-11-19T08:07:15;13.20;99.90
32698;DHT22;19087;51.062;3.754;2023-11-19T08:09:41;13.20;99.90
32698;DHT22;19087;51.062;3.754;2023-11-19T08:12:07;13.20;99.90
32698;DHT22;19087;51.062;3.754;2023-11-19T08:14:34;13.10;99.90
32698;DHT22;19087;51.062;3.754;2023-11-19T08:17:00;13.10;99.90
32698;DHT22;19087;51.062;3.754;2023-11-19T08:19:26;13.20;99.90
32698;DHT22;19087;51.062;3.754;2023-11-19T08:21:52;13.30;99.90
32698;DHT22;19087;51.062;3.754;2023-11-19T08:24:17;13.30;99.90
32698;DHT22;19087;51.062;3.754;2023-11-19T08:26:43;13.30;99.90
32698;DHT22;19087;51.062;3.754;2023-11-19T08:29:10;13.40;99.90
32698;DHT22;19087;51.062;3.754;2023-11-19T08:31:35;13.40;99.90
32698;DHT22;19087;51.062;3.754;2023-11-19T08:34:02;13.50;99.90
32698;DHT22;19087;51.062;3.754;2023-11-19T08:36:28;13.50;99.90
32698;DHT22;19087;51.062;3.754;2023-11-19T08:38:54;13.60;99.90
32698;DHT22;19087;51.062;3.754;2023-11-19T08:41:21;13.60;99.90
32698;DHT22;19087;51.062;3.754;2023-11-19T08:43:48;13.80;99.90
32698;DHT22;19087;51.062;3.754;2023-11-19T08:46:13;13.90;99.90
32698;DHT22;19087;51.062;3.754;2023-11-19T08:48:40;13.80;99.90
32698;DHT22;19087;51.062;3.754;2023-11-19T08:51:07;13.90;99.90
32698;DHT22;19087;51.062;3.754;2023-11-19T08:53:32;13.80;99.90
32698;DHT22;19087;51.062;3.754;2023-11-19T08:55:58;14.00;99.90
32698;DHT22;19087;51.062;3.754;2023-11-19T08:58:24;14.00;99.90
32698;DHT22;19087;51.062;3.754;2023-11-19T09:00:50;14.00;99.90
32698;DHT22;19087;51.062;3.754;2023-11-19T09:03:17;14.10;99.90
32698;DHT22;19087;51.062;3.754;2023-11-19T09:05:43;14.30;99.90
32698;DHT22;19087;51.062;3.754;2023-11-19T09:08:08;14.40;99.90
32698;DHT22;19087;51.062;3.754;2023-11-19T09:10:34;14.50;99.90
32698;DHT22;19087;51.062;3.754;2023-11-19T09:13:01;14.50;99.90
32698;DHT22;19087;51.062;3.754;2023-11-19T09:15:27;14.30;99.90
32698;DHT22;19087;51.062;3.754;2023-11-19T09:17:52;14.40;99.90
32698;DHT22;19087;51.062;3.754;2023-11-19T09:20:21;14.50;99.90
32698;DHT22;19087;51.062;3.754;2023-11-19T09:22:48;14.60;99.90
32698;DHT22;19087;51.062;3.754;2023-11-19T09:25:14;14.50;99.90
32698;DHT22;19087;51.062;3.754;2023-11-19T09:27:43;14.60;99.90
32698;DHT22;19087;51.062;3.754;2023-11-19T09:30:09;14.50;99.90
32698;DHT22;19087;51.062;3.754;2023-11-19T09:32:36;14.60;99.90
32698;DHT22;19087;51.062;3.754;2023-11-19T09:35:03;14.60;99.90
32698;DHT22;19087;51.062;3.754;2023-11-19T09:37:30;14.40;99.90
32698;DHT22;19087;51.062;3.754;2023-11-19T09:39:56;14.30;99.90
32698;DHT22;19087;51.062;3.754;2023-11-19T09:42:21;14.30;99.90
32698;DHT22;19087;51.062;3.754;2023-11-19T09:44:49;14.40;99.90
32698;DHT22;19087;51.062;3.754;2023-11-19T09:47:16;14.50;99.90
32698;DHT22;19087;51.062;3.754;2023-11-19T09:49:42;14.60;99.90
32698;DHT22;19087;51.062;3.754;2023-11-19T09:52:08;14.70;99.90
32698;DHT22;19087;51.062;3.754;2023-11-19T09:54:34;14.90;99.90
32698;DHT22;19087;51.062;3.754;2023-11-19T09:57:02;15.00;99.90
32698;DHT22;19087;51.062;3.754;2023-11-19T09:59:31;15.00;99.90
32698;DHT22;19087;51.062;3.754;2023-11-19T10:01:59;15.10;99.90
32698;DHT22;19087;51.062;3.754;2023-11-19T10:04:25;15.10;99.90
32698;DHT22;19087;51.062;3.754;2023-11-19T10:06:55;15.10;99.90
32698;DHT22;19087;51.062;3.754;2023-11-19T10:09:21;15.10;99.90
32698;DHT22;19087;51.062;3.754;2023-11-19T10:11:47;15.10;99.90
32698;DHT22;19087;51.062;3.754;2023-11-19T10:14:13;15.00;99.90
32698;DHT22;19087;51.062;3.754;2023-11-19T10:16:40;15.00;99.90
32698;DHT22;19087;51.062;3.754;2023-11-19T10:19:06;15.00;99.90
32698;DHT22;19087;51.062;3.754;2023-11-19T10:21:33;15.10;99.90
32698;DHT22;19087;51.062;3.754;2023-11-19T10:23:59;15.10;99.90
32698;DHT22;19087;51.062;3.754;2023-11-19T10:26:27;15.00;99.90
32698;DHT22;19087;51.062;3.754;2023-11-19T10:28:55;14.90;99.90
32698;DHT22;19087;51.062;3.754;2023-11-19T10:31:21;14.70;99.90
32698;DHT22;19087;51.062;3.754;2023-11-19T10:33:51;14.50;99.90
32698;DHT22;19087;51.062;3.754;2023-11-19T10:36:19;14.60;99.90
32698;DHT22;19087;51.062;3.754;2023-11-19T10:38:55;14.80;99.90
32698;DHT22;19087;51.062;3.754;2023-11-19T10:41:31;14.70;99.90
32698;DHT22;19087;51.062;3.754;2023-11-19T10:44:01;14.80;99.90
32698;DHT22;19087;51.062;3.754;2023-11-19T10:46:37;15.00;99.90
32698;DHT22;19087;51.062;3.754;2023-11-19T10:49:04;15.20;99.90
32698;DHT22;19087;51.062;3.754;2023-11-19T10:51:32;15.20;99.90
32698;DHT22;19087;51.062;3.754;2023-11-19T10:54:02;15.20;99.90
32698;DHT22;19087;51.062;3.754;2023-11-19T10:56:31;15.30;99.90
32698;DHT22;19087;51.062;3.754;2023-11-19T10:58:59;15.40;99.90
32698;DHT22;19087;51.062;3.754;2023-11-19T11:01:29;15.50;99.90
32698;DHT22;19087;51.062;3.754;2023-11-19T11:03:59;15.20;99.90
32698;DHT22;19087;51.062;3.754;2023-11-19T11:06:30;15.20;99.90
32698;DHT22;19087;51.062;3.754;2023-11-19T11:08:56;15.20;99.90
32698;DHT22;19087;51.062;3.754;2023-11-19T11:11:23;15.20;99.90
32698;DHT22;19087;51.062;3.754;2023-11-19T11:13:50;15.20;99.90
32698;DHT22;19087;51.062;3.754;2023-11-19T11:16:19;15.10;99.90
32698;DHT22;19087;51.062;3.754;2023-11-19T11:18:46;15.00;99.90
32698;DHT22;19087;51.062;3.754;2023-11-19T11:21:17;15.20;99.90
32698;DHT22;19087;51.062;3.754;2023-11-19T11:26:53;15.40;99.90
32698;DHT22;19087;51.062;3.754;2023-11-19T11:29:48;15.50;99.90
32698;DHT22;19087;51.062;3.754;2023-11-19T11:32:34;15.70;99.90
32698;DHT22;19087;51.062;3.754;2023-11-19T11:35:24;15.60;99.90
32698;DHT22;19087;51.062;3.754;2023-11-19T11:38:02;15.70;99.90
32698;DHT22;19087;51.062;3.754;2023-11-19T11:40:29;15.70;99.90
32698;DHT22;19087;51.062;3.754;2023-11-19T11:42:55;15.60;99.90
32698;DHT22;19087;51.062;3.754;2023-11-19T11:45:39;15.50;99.90
32698;DHT22;19087;51.062;3.754;2023-11-19T11:48:15;15.40;99.90
32698;DHT22;19087;51.062;3.754;2023-11-19T11:50:56;15.30;99.90
32698;DHT22;19087;51.062;3.754;2023-11-19T11:53:25;15.20;99.90
32698;DHT22;19087;51.062;3.754;2023-11-19T11:58:29;14.80;99.90
32698;DHT22;19087;51.062;3.754;2023-11-19T12:01:00;14.60;99.90
32698;DHT22;19087;51.062;3.754;2023-11-19T12:03:28;14.50;99.90
32698;DHT22;19087;51.062;3.754;2023-11-19T12:05:55;14.70;99.90
32698;DHT22;19087;51.062;3.754;2023-11-19T12:08:26;14.70;99.90
32698;DHT22;19087;51.062;3.754;2023-11-19T12:10:55;14.80;99.90
32698;DHT22;19087;51.062;3.754;2023-11-19T12:13:24;14.90;99.90
32698;DHT22;19087;51.062;3.754;2023-11-19T12:18:30;15.10;99.90
32698;DHT22;19087;51.062;3.754;2023-11-19T12:20:59;15.20;99.90
32698;DHT22;19087;51.062;3.754;2023-11-19T12:23:31;15.10;99.90
32698;DHT22;19087;51.062;3.754;2023-11-19T12:25:58;15.20;99.90
32698;DHT22;19087;51.062;3.754;2023-11-19T12:28:30;15.30;99.90
32698;DHT22;19087;51.062;3.754;2023-11-19T12:31:08;15.50;99.90
32698;DHT22;19087;51.062;3.754;2023-11-19T12:33:36;15.60;99.90
32698;DHT22;19087;51.062;3.754;2023-11-19T12:36:03;15.50;99.90
32698;DHT22;19087;51.062;3.754;2023-11-19T12:38:31;15.40;99.90
32698;DHT22;19087;51.062;3.754;2023-11-19T12:41:07;15.40;99.90
32698;DHT22;19087;51.062;3.754;2023-11-19T12:43:34;15.30;99.90
32698;DHT22;19087;51.062;3.754;2023-11-19T12:46:00;15.30;99.90
32698;DHT22;19087;51.062;3.754;2023-11-19T12:48:26;15.30;99.90
32698;DHT22;19087;51.062;3.754;2023-11-19T12:50:58;15.40;99.90
32698;DHT22;19087;51.062;3.754;2023-11-19T12:53:25;15.30;99.90
32698;DHT22;19087;51.062;3.754;2023-11-19T12:55:52;15.20;99.90
32698;DHT22;19087;51.062;3.754;2023-11-19T12:58:36;15.30;99.90
32698;DHT22;19087;51.062;3.754;2023-11-19T13:01:09;15.30;99.90
32698;DHT22;19087;51.062;3.754;2023-11-19T13:03:38;15.30;99.90
32698;DHT22;19087;51.062;3.754;2023-11-19T13:06:06;15.30;99.90
32698;DHT22;19087;51.062;3.754;2023-11-19T13:08:47;15.40;99.90
32698;DHT22;19087;51.062;3.754;2023-11-19T13:11:35;15.40;99.90
32698;DHT22;19087;51.062;3.754;2023-11-19T13:14:04;15.80;99.90
32698;DHT22;19087;51.062;3.754;2023-11-19T13:16:31;16.10;99.90
32698;DHT22;19087;51.062;3.754;2023-11-19T13:18:57;16.30;99.90
32698;DHT22;19087;51.062;3.754;2023-11-19T13:21:24;16.40;99.90
32698;DHT22;19087;51.062;3.754;2023-11-19T13:23:50;16.40;99.90
32698;DHT22;19087;51.062;3.754;2023-11-19T13:26:20;16.40;99.90
32698;DHT22;19087;51.062;3.754;2023-11-19T13:28:46;16.40;99.90
32698;DHT22;19087;51.062;3.754;2023-11-19T13:31:12;16.30;99.90
32698;DHT22;19087;51.062;3.754;2023-11-19T13:33:38;16.20;99.90
32698;DHT22;19087;51.062;3.754;2023-11-19T13:36:04;16.00;99.90
32698;DHT22;19087;51.062;3.754;2023-11-19T13:38:36;15.90;99.90
32698;DHT22;19087;51.062;3.754;2023-11-19T13:41:04;15.80;99.90
32698;DHT22;19087;51.062;3.754;2023-11-19T13:43:30;15.90;99.90
32698;DHT22;19087;51.062;3.754;2023-11-19T13:45:57;15.80;99.90
32698;DHT22;19087;51.062;3.754;2023-11-19T13:48:26;15.60;99.90
32698;DHT22;19087;51.062;3.754;2023-11-19T13:50:53;15.60;99.90
32698;DHT22;19087;51.062;3.754;2023-11-19T13:53:20;15.50;99.90
32698;DHT22;19087;51.062;3.754;2023-11-19T13:55:46;15.50;99.90
32698;DHT22;19087;51.062;3.754;2023-11-19T13:58:12;15.30;99.90
32698;DHT22;19087;51.062;3.754;2023-11-19T14:00:38;15.00;99.90
32698;DHT22;19087;51.062;3.754;2023-11-19T14:03:04;14.90;99.90
32698;DHT22;19087;51.062;3.754;2023-11-19T14:05:31;14.90;99.90
32698;DHT22;19087;51.062;3.754;2023-11-19T14:07:57;14.80;99.90
32698;DHT22;19087;51.062;3.754;2023-11-19T14:10:24;14.90;99.90
32698;DHT22;19087;51.062;3.754;2023-11-19T14:12:50;14.80;99.90
32698;DHT22;19087;51.062;3.754;2023-11-19T14:15:16;14.80;99.90
32698;DHT22;19087;51.062;3.754;2023-11-19T14:17:43;14.70;99.90
32698;DHT22;19087;51.062;3.754;2023-11-19T14:20:10;14.50;99.90
32698;DHT22;19087;51.062;3.754;2023-11-19T14:22:44;14.30;99.90
32698;DHT22;19087;51.062;3.754;2023-11-19T14:25:11;14.40;99.90
32698;DHT22;19087;51.062;3.754;2023-11-19T14:27:42;14.40;99.90
32698;DHT22;19087;51.062;3.754;2023-11-19T14:30:10;14.50;99.90
32698;DHT22;19087;51.062;3.754;2023-11-19T14:32:40;14.50;99.90
32698;DHT22;19087;51.062;3.754;2023-11-19T14:35:08;14.50;99.90
32698;DHT22;19087;51.062;3.754;2023-11-19T14:37:35;14.60;99.90
32698;DHT22;19087;51.062;3.754;2023-11-19T14:40:01;14.50;99.90
32698;DHT22;19087;51.062;3.754;2023-11-19T14:42:31;14.50;99.90
32698;DHT22;19087;51.062;3.754;2023-11-19T14:44:59;14.50;99.90
32698;DHT22;19087;51.062;3.754;2023-11-19T14:47:29;14.50;99.90
32698;DHT22;19087;51.062;3.754;2023-11-19T14:49:56;14.60;99.90
32698;DHT22;19087;51.062;3.754;2023-11-19T14:52:21;14.60;99.90
32698;DHT22;19087;51.062;3.754;2023-11-19T14:54:48;14.60;99.90
32698;DHT22;19087;51.062;3.754;2023-11-19T14:57:15;14.60;99.90
32698;DHT22;19087;51.062;3.754;2023-11-19T14:59:41;14.60;99.90
32698;DHT22;19087;51.062;3.754;2023-11-19T15:02:07;14.70;99.90
32698;DHT22;19087;51.062;3.754;2023-11-19T15:04:36;14.60;99.90
32698;DHT22;19087;51.062;3.754;2023-11-19T15:07:03;14.40;99.90
32698;DHT22;19087;51.062;3.754;2023-11-19T15:09:29;14.20;99.90
32698;DHT22;19087;51.062;3.754;2023-11-19T15:11:55;14.30;99.90
32698;DHT22;19087;51.062;3.754;2023-11-19T15:14:22;14.20;99.90
32698;DHT22;19087;51.062;3.754;2023-11-19T15:16:48;14.10;99.90
32698;DHT22;19087;51.062;3.754;2023-11-19T15:19:18;14.00;99.90
32698;DHT22;19087;51.062;3.754;2023-11-19T15:21:45;13.90;99.90
32698;DHT22;19087;51.062;3.754;2023-11-19T15:24:11;13.80;99.90
32698;DHT22;19087;51.062;3.754;2023-11-19T15:26:37;13.80;99.90
32698;DHT22;19087;51.062;3.754;2023-11-19T15:29:04;13.90;99.90
32698;DHT22;19087;51.062;3.754;2023-11-19T15:31:33;14.00;99.90
32698;DHT22;19087;51.062;3.754;2023-11-19T15:33:59;14.00;99.90
32698;DHT22;19087;51.062;3.754;2023-11-19T15:36:26;14.00;99.90
32698;DHT22;19087;51.062;3.754;2023-11-19T15:38:54;14.00;99.90
32698;DHT22;19087;51.062;3.754;2023-11-19T15:41:22;14.00;99.90